createdAt,value
2023-02-09T00:02:26.426Z,52.26
2023-02-09T00:05:30.401Z,51.03
2023-02-09T00:08:34.765Z,51.26
2023-02-09T00:11:55.979Z,50.34
2023-02-09T00:15:01.025Z,50.43
2023-02-09T00:18:05.237Z,51.28
2023-02-09T00:21:12.302Z,51.09
2023-02-09T00:24:17.068Z,50.20
2023-02-09T00:27:20.952Z,50.54
2023-02-09T00:30:28.094Z,49.86
2023-02-09T00:33:33.892Z,48.23
2023-02-09T00:36:38.652Z,48.55
2023-02-09T00:39:42.589Z,49.16
2023-02-09T00:42:46.895Z,49.09
2023-02-09T00:45:52.067Z,49.54
2023-02-09T00:48:56.116Z,49.75
2023-02-09T00:52:02.113Z,50.57
2023-02-09T00:55:06.592Z,49.98
2023-02-09T00:58:10.521Z,49.34
2023-02-09T01:01:16.669Z,48.82
2023-02-09T01:04:21.165Z,48.67
2023-02-09T01:07:25.148Z,48.50
2023-02-09T01:10:29.464Z,49.06
2023-02-09T01:13:34.352Z,48.43
2023-02-09T01:16:40.207Z,49.26
2023-02-09T01:19:44.627Z,49.21
2023-02-09T01:22:50.745Z,48.84
2023-02-09T01:26:02.637Z,48.89
2023-02-09T01:29:06.526Z,49.04
2023-02-09T01:32:14.562Z,48.92
2023-02-09T01:35:20.553Z,49.08
2023-02-09T01:38:25.888Z,49.30
2023-02-09T01:41:30.053Z,49.29
2023-02-09T01:45:16.278Z,47.79
2023-02-09T01:48:26.968Z,48.87
2023-02-09T01:51:34.400Z,49.38
2023-02-09T01:54:41.482Z,49.37
2023-02-09T01:57:49.816Z,49.42
2023-02-09T02:00:55.846Z,48.68
2023-02-09T02:04:01.468Z,48.81
2023-02-09T02:07:15.112Z,48.60
2023-02-09T02:10:19.674Z,48.78
2023-02-09T02:13:24.788Z,49.95
2023-02-09T02:16:43.125Z,49.29
2023-02-09T02:20:20.577Z,49.30
2023-02-09T02:23:35.399Z,49.78
2023-02-09T02:27:00.093Z,50.03
2023-02-09T02:30:45.397Z,50.27
2023-02-09T02:34:02.124Z,50.44
2023-02-09T02:37:18.348Z,49.84
2023-02-09T02:40:38.437Z,50.22
2023-02-09T02:43:55.254Z,50.34
2023-02-09T02:47:02.625Z,49.57
2023-02-09T02:50:15.547Z,48.96
2023-02-09T02:53:23.442Z,49.01
2023-02-09T02:56:33.911Z,49.31
2023-02-09T02:59:44.419Z,48.92
2023-02-09T03:02:51.825Z,49.52
2023-02-09T03:05:59.709Z,49.81
2023-02-09T03:09:03.765Z,49.70
2023-02-09T03:12:18.785Z,50.11
2023-02-09T03:15:32.766Z,50.14
2023-02-09T03:18:45.096Z,49.38
2023-02-09T03:21:54.131Z,48.36
2023-02-09T03:25:02.188Z,48.60
2023-02-09T03:28:10.735Z,48.87
2023-02-09T03:31:15.548Z,48.19
2023-02-09T03:34:19.627Z,48.29
2023-02-09T03:37:25.951Z,48.99
2023-02-09T03:40:32.053Z,48.76
2023-02-09T03:43:53.036Z,49.24
2023-02-09T03:47:01.772Z,48.30
2023-02-09T03:50:06.931Z,48.50
2023-02-09T03:53:13.360Z,48.50
2023-02-09T03:56:17.656Z,49.58
2023-02-09T03:59:22.541Z,49.46
2023-02-09T04:02:26.673Z,48.92
2023-02-09T04:05:30.440Z,48.79
2023-02-09T04:08:36.724Z,48.67
2023-02-09T04:11:40.223Z,48.19
2023-02-09T04:14:44.198Z,48.58
2023-02-09T04:17:49.930Z,50.49
2023-02-09T04:20:56.155Z,49.59
2023-02-09T04:24:01.139Z,49.31
2023-02-09T04:27:05.365Z,49.34
2023-02-09T04:30:10.902Z,49.44
2023-02-09T04:33:14.794Z,50.04
2023-02-09T04:36:19.014Z,49.52
2023-02-09T04:39:24.889Z,49.04
2023-02-09T04:42:28.903Z,48.67
2023-02-09T04:45:33.065Z,48.36
2023-02-09T04:48:36.510Z,48.39
2023-02-09T04:51:40.626Z,48.76
2023-02-09T04:54:49.886Z,49.00
2023-02-09T04:58:11.443Z,49.73
2023-02-09T05:01:20.441Z,49.51
2023-02-09T05:04:24.616Z,49.70
2023-02-09T05:07:28.334Z,49.40
2023-02-09T05:10:35.588Z,49.27
2023-02-09T05:13:39.203Z,49.82
2023-02-09T05:16:43.450Z,48.98
2023-02-09T05:19:48.361Z,49.76
2023-02-09T05:22:52.278Z,49.66
2023-02-09T05:25:58.175Z,49.63
2023-02-09T05:29:02.634Z,49.33
2023-02-09T05:32:06.563Z,49.37
2023-02-09T05:35:11.197Z,49.46
2023-02-09T05:38:14.765Z,49.39
2023-02-09T05:41:33.981Z,49.07
2023-02-09T05:44:37.656Z,48.99
2023-02-09T05:47:42.632Z,48.42
2023-02-09T05:50:47.036Z,48.00
2023-02-09T05:53:54.760Z,48.48
2023-02-09T05:56:59.780Z,48.50
2023-02-09T06:00:04.761Z,48.78
2023-02-09T06:03:18.309Z,48.01
2023-02-09T06:06:22.812Z,47.99
2023-02-09T06:09:27.109Z,47.75
2023-02-09T06:12:32.933Z,47.42
2023-02-09T06:15:38.111Z,48.86
2023-02-09T06:18:42.799Z,48.11
2023-02-09T06:21:46.891Z,47.67
2023-02-09T06:24:51.190Z,48.06
2023-02-09T06:27:56.414Z,48.05
2023-02-09T06:31:00.340Z,48.54
2023-02-09T06:34:05.853Z,48.86
2023-02-09T06:37:12.896Z,49.85
2023-02-09T06:40:16.622Z,49.52
2023-02-09T06:43:22.187Z,49.65
2023-02-09T06:46:26.258Z,50.48
2023-02-09T06:49:30.766Z,50.63
2023-02-09T06:52:34.786Z,50.85
2023-02-09T06:55:39.174Z,51.90
2023-02-09T06:58:45.586Z,51.38
2023-02-09T07:01:54.448Z,51.61
2023-02-09T07:04:58.801Z,51.34
2023-02-09T07:08:03.724Z,52.24
2023-02-09T07:11:09.701Z,51.54
2023-02-09T07:14:15.613Z,52.16
2023-02-09T07:17:19.244Z,52.32
2023-02-09T07:20:23.342Z,52.03
2023-02-09T07:23:27.987Z,51.54
2023-02-09T07:26:32.130Z,50.99
2023-02-09T07:29:37.025Z,52.30
2023-02-09T07:32:42.218Z,52.09
2023-02-09T07:35:45.973Z,52.95
2023-02-09T07:38:50.999Z,52.69
2023-02-09T07:41:55.221Z,51.98
2023-02-09T07:45:01.307Z,52.92
2023-02-09T07:48:05.013Z,52.32
2023-02-09T07:51:15.023Z,51.95
2023-02-09T07:54:18.591Z,52.52
2023-02-09T07:57:22.623Z,53.48
2023-02-09T08:00:27.914Z,52.32
2023-02-09T08:03:33.092Z,51.46
2023-02-09T08:06:42.804Z,51.50
2023-02-09T08:09:49.206Z,51.09
2023-02-09T08:13:04.062Z,51.04
2023-02-09T08:16:13.272Z,51.09
2023-02-09T08:19:23.415Z,49.59
2023-02-09T08:22:35.834Z,49.76
2023-02-09T08:25:40.978Z,49.49
2023-02-09T08:28:45.722Z,50.06
2023-02-09T08:31:50.847Z,49.73
2023-02-09T08:34:54.953Z,50.03
2023-02-09T08:38:02.477Z,50.22
2023-02-09T08:41:09.385Z,49.46
2023-02-09T08:44:13.195Z,49.29
2023-02-09T08:47:18.752Z,49.52
2023-02-09T08:50:22.840Z,50.10
2023-02-09T08:53:27.338Z,49.51
2023-02-09T08:56:31.404Z,48.81
2023-02-09T08:59:35.464Z,48.89
2023-02-09T09:02:40.632Z,48.52
2023-02-09T09:05:45.626Z,48.46
2023-02-09T09:08:51.914Z,48.88
2023-02-09T09:11:58.678Z,49.63
2023-02-09T09:15:03.543Z,49.54
2023-02-09T09:18:13.842Z,49.60
2023-02-09T09:21:19.880Z,49.74
2023-02-09T09:24:30.594Z,49.10
2023-02-09T09:27:36.315Z,50.40
2023-02-09T09:30:40.315Z,50.50
2023-02-09T09:33:46.389Z,50.18
2023-02-09T09:36:50.531Z,50.42
2023-02-09T09:39:55.281Z,49.75
2023-02-09T09:43:01.900Z,49.34
2023-02-09T09:46:08.270Z,48.14
2023-02-09T09:49:23.160Z,48.71
2023-02-09T09:52:34.405Z,48.50
2023-02-09T09:55:40.041Z,47.97
2023-02-09T09:58:48.671Z,49.04
2023-02-09T10:01:55.304Z,49.70
2023-02-09T10:05:06.461Z,48.20
2023-02-09T10:08:17.322Z,49.08
2023-02-09T10:11:27.286Z,49.87
2023-02-09T10:14:31.403Z,49.16
2023-02-09T10:17:34.960Z,48.56
2023-02-09T10:20:47.742Z,48.56
2023-02-09T10:23:52.815Z,49.82
2023-02-09T10:27:07.861Z,48.73
2023-02-09T10:30:28.099Z,48.85
2023-02-09T10:33:42.797Z,49.47
2023-02-09T10:36:52.168Z,49.46
2023-02-09T10:40:02.698Z,49.00
2023-02-09T10:43:20.407Z,50.01
2023-02-09T10:46:26.023Z,50.01
2023-02-09T10:49:35.586Z,48.94
2023-02-09T10:52:54.528Z,49.05
2023-02-09T10:56:05.777Z,48.06
2023-02-09T10:59:18.393Z,48.10
2023-02-09T11:02:37.291Z,46.52
2023-02-09T11:05:46.558Z,46.85
2023-02-09T11:08:56.855Z,45.31
2023-02-09T11:12:01.797Z,46.44
2023-02-09T11:15:13.981Z,45.53
2023-02-09T11:18:26.524Z,45.65
2023-02-09T11:21:49.285Z,45.40
2023-02-09T11:25:03.769Z,44.56
2023-02-09T11:28:33.243Z,45.77
2023-02-09T11:31:57.978Z,45.83
2023-02-09T11:35:09.349Z,44.51
2023-02-09T11:38:19.116Z,45.32
2023-02-09T11:41:48.275Z,44.66
2023-02-09T11:44:57.681Z,43.73
2023-02-09T11:48:06.832Z,44.78
2023-02-09T11:51:17.527Z,44.44
2023-02-09T11:54:25.797Z,44.72
2023-02-09T11:57:37.369Z,45.33
2023-02-09T12:00:57.757Z,44.17
2023-02-09T12:04:12.029Z,45.08
2023-02-09T12:07:22.820Z,44.71
2023-02-09T12:10:32.569Z,45.04
2023-02-09T12:13:56.613Z,44.28
2023-02-09T12:17:07.540Z,44.83
2023-02-09T12:20:23.785Z,43.99
2023-02-09T12:23:35.399Z,44.18
2023-02-09T12:26:43.789Z,44.01
2023-02-09T12:29:49.475Z,44.37
2023-02-09T12:33:17.130Z,43.69
2023-02-09T12:36:30.849Z,42.59
2023-02-09T12:39:35.189Z,44.05
2023-02-09T12:42:41.469Z,43.74
2023-02-09T12:45:46.789Z,44.03
2023-02-09T12:48:54.443Z,44.06
2023-02-09T12:52:18.227Z,44.49
2023-02-09T12:55:24.597Z,44.22
2023-02-09T12:58:41.782Z,44.20
2023-02-09T13:02:16.026Z,44.89
2023-02-09T13:05:23.291Z,44.65
2023-02-09T13:08:41.168Z,44.40
2023-02-09T13:11:49.373Z,43.45
2023-02-09T13:14:54.047Z,43.71
2023-02-09T13:18:08.863Z,44.11
2023-02-09T13:21:21.716Z,43.78
2023-02-09T13:24:35.270Z,43.48
2023-02-09T13:27:46.539Z,43.67
2023-02-09T13:30:50.887Z,43.50
2023-02-09T13:34:03.325Z,42.48
2023-02-09T13:37:28.476Z,43.19
2023-02-09T13:40:35.104Z,44.45
2023-02-09T13:43:40.513Z,44.08
2023-02-09T13:46:53.445Z,43.77
2023-02-09T13:50:00.758Z,43.16
2023-02-09T13:53:10.472Z,42.20
2023-02-09T13:56:17.387Z,43.61
2023-02-09T13:59:21.475Z,43.77
2023-02-09T14:02:28.590Z,42.74
2023-02-09T14:05:43.419Z,43.05
2023-02-09T14:08:49.998Z,42.56
2023-02-09T14:11:56.777Z,42.47
2023-02-09T14:15:17.542Z,43.00
2023-02-09T14:18:29.081Z,43.70
2023-02-09T14:21:46.505Z,42.73
2023-02-09T14:24:51.016Z,43.57
2023-02-09T14:27:55.479Z,42.96
2023-02-09T14:31:01.043Z,43.47
2023-02-09T14:34:05.979Z,43.88
2023-02-09T14:37:42.538Z,44.71
2023-02-09T14:40:46.823Z,44.80
2023-02-09T14:44:02.425Z,44.43
2023-02-09T14:47:06.161Z,44.68
2023-02-09T14:50:13.623Z,44.66
2023-02-09T14:53:20.385Z,44.59
2023-02-09T14:56:29.076Z,44.47
2023-02-09T14:59:32.768Z,43.72
2023-02-09T15:02:37.891Z,43.56
2023-02-09T15:05:42.887Z,44.52
2023-02-09T15:08:48.709Z,44.06
2023-02-09T15:12:07.622Z,43.88
2023-02-09T15:15:17.645Z,44.06
2023-02-09T15:18:23.662Z,44.36
2023-02-09T15:21:28.952Z,43.90
2023-02-09T15:24:34.190Z,43.78
2023-02-09T15:27:43.360Z,43.81
2023-02-09T15:30:47.311Z,43.67
2023-02-09T15:33:51.630Z,43.35
2023-02-09T15:36:55.479Z,43.63
2023-02-09T15:40:04.914Z,43.67
2023-02-09T15:43:31.420Z,43.15
2023-02-09T15:46:53.695Z,43.48
2023-02-09T15:49:57.768Z,43.80
2023-02-09T15:53:04.224Z,43.40
2023-02-09T15:56:10.292Z,43.45
2023-02-09T15:59:19.568Z,43.25
2023-02-09T16:02:23.728Z,43.55
2023-02-09T16:05:29.966Z,43.45
2023-02-09T16:08:35.643Z,43.54
2023-02-09T16:11:42.510Z,43.57
2023-02-09T16:14:46.151Z,43.74
2023-02-09T16:17:51.239Z,44.11
2023-02-09T16:20:55.358Z,44.17
2023-02-09T16:24:03.494Z,46.30
2023-02-09T16:27:16.535Z,46.31
2023-02-09T16:30:23.530Z,47.63
2023-02-09T16:33:27.923Z,47.76
2023-02-09T16:36:32.811Z,48.05
2023-02-09T16:39:36.493Z,47.70
2023-02-09T16:42:42.063Z,47.78
2023-02-09T16:46:01.072Z,47.58
2023-02-09T16:49:07.858Z,48.96
2023-02-09T16:52:16.881Z,48.91
2023-02-09T16:55:25.182Z,48.52
2023-02-09T16:58:30.549Z,48.79
2023-02-09T17:01:34.706Z,49.62
2023-02-09T17:04:40.413Z,48.92
2023-02-09T17:07:54.521Z,49.49
2023-02-09T17:10:59.671Z,49.55
2023-02-09T17:14:04.999Z,48.81
2023-02-09T17:17:11.437Z,49.36
2023-02-09T17:20:21.945Z,48.72
2023-02-09T17:23:27.819Z,48.97
2023-02-09T17:26:32.514Z,48.40
2023-02-09T17:29:37.528Z,49.62
2023-02-09T17:32:41.753Z,49.04
2023-02-09T17:36:17.786Z,50.13
2023-02-09T17:39:12.316Z,49.85
2023-02-09T17:42:23.079Z,49.29
2023-02-09T17:45:35.079Z,49.96
2023-02-09T17:48:39.165Z,50.08
2023-02-09T17:51:46.383Z,50.51
2023-02-09T17:54:51.154Z,50.13
2023-02-09T17:57:58.659Z,50.36
2023-02-09T18:01:03.721Z,49.80
2023-02-09T18:04:07.667Z,49.52
2023-02-09T18:07:11.619Z,49.72
2023-02-09T18:10:17.098Z,49.47
2023-02-09T18:13:24.304Z,51.02
2023-02-09T18:16:29.604Z,50.87
2023-02-09T18:19:34.068Z,51.52
2023-02-09T18:22:38.287Z,51.37
2023-02-09T18:25:42.914Z,50.82
2023-02-09T18:28:47.197Z,50.36
2023-02-09T18:31:52.364Z,50.32
2023-02-09T18:34:56.816Z,50.43
2023-02-09T18:38:00.985Z,51.61
2023-02-09T18:41:05.194Z,51.92
2023-02-09T18:44:09.018Z,51.55
2023-02-09T18:47:14.833Z,52.18
2023-02-09T18:50:21.116Z,51.08
2023-02-09T18:53:25.484Z,52.43
2023-02-09T18:56:29.507Z,51.88
2023-02-09T18:59:36.235Z,52.79
2023-02-09T19:02:45.462Z,52.15
2023-02-09T19:05:49.823Z,51.56
2023-02-09T19:08:54.095Z,51.51
2023-02-09T19:11:57.909Z,51.16
2023-02-09T19:15:01.546Z,52.04
2023-02-09T19:18:07.720Z,52.17
2023-02-09T19:21:11.328Z,51.73
2023-02-09T19:24:15.720Z,52.16
2023-02-09T19:27:24.213Z,52.30
2023-02-09T19:30:28.852Z,52.43
2023-02-09T19:33:33.856Z,51.75
2023-02-09T19:36:38.192Z,51.55
2023-02-09T19:39:42.088Z,51.33
2023-02-09T19:42:49.636Z,51.24
2023-02-09T19:45:57.453Z,51.61
2023-02-09T19:49:06.944Z,52.90
2023-02-09T19:52:10.837Z,52.97
2023-02-09T19:55:16.636Z,52.62
2023-02-09T19:58:21.608Z,52.67
2023-02-09T20:01:29.650Z,51.82
2023-02-09T20:04:35.502Z,52.33
2023-02-09T20:07:42.022Z,52.25
2023-02-09T20:10:46.436Z,52.19
2023-02-09T20:13:52.930Z,52.28
2023-02-09T20:16:57.318Z,52.23
2023-02-09T20:20:02.890Z,52.55
2023-02-09T20:23:06.645Z,52.71
2023-02-09T20:26:12.431Z,52.64
2023-02-09T20:29:16.966Z,51.69
2023-02-09T20:32:20.882Z,51.75
2023-02-09T20:35:26.946Z,52.61
2023-02-09T20:38:31.174Z,51.68
2023-02-09T20:41:34.810Z,51.78
2023-02-09T20:44:56.324Z,51.74
2023-02-09T20:48:00.336Z,51.39
2023-02-09T20:51:06.090Z,51.26
2023-02-09T20:54:10.407Z,51.34
2023-02-09T20:57:14.962Z,51.60
2023-02-09T21:00:19.210Z,51.53
2023-02-09T21:03:25.089Z,52.98
2023-02-09T21:06:30.295Z,51.43
2023-02-09T21:09:34.540Z,51.28
2023-02-09T21:12:38.375Z,51.87
2023-02-09T21:15:45.933Z,52.02
2023-02-09T21:18:50.646Z,51.10
2023-02-09T21:21:59.535Z,51.59
2023-02-09T21:25:04.797Z,50.92
2023-02-09T21:28:10.879Z,50.19
2023-02-09T21:31:17.367Z,51.12
2023-02-09T21:34:22.246Z,51.36
2023-02-09T21:37:29.846Z,51.65
2023-02-09T21:40:34.153Z,51.80
2023-02-09T21:43:38.042Z,51.26
2023-02-09T21:46:42.342Z,51.45
2023-02-09T21:49:45.853Z,51.10
2023-02-09T21:52:51.485Z,50.87
2023-02-09T21:55:55.100Z,50.56
2023-02-09T21:59:02.001Z,51.38
2023-02-09T22:02:06.212Z,51.28
2023-02-09T22:05:11.185Z,51.39
2023-02-09T22:08:16.683Z,50.50
2023-02-09T22:11:21.072Z,51.05
2023-02-09T22:14:24.798Z,51.96
2023-02-09T22:17:28.856Z,51.10
2023-02-09T22:20:32.454Z,50.88
2023-02-09T22:23:38.274Z,51.18
2023-02-09T22:26:42.058Z,50.52
2023-02-09T22:29:46.488Z,50.86
2023-02-09T22:32:50.082Z,50.56
2023-02-09T22:35:54.253Z,50.62
2023-02-09T22:39:02.586Z,50.92
2023-02-09T22:42:07.192Z,51.00
2023-02-09T22:45:11.458Z,50.78
2023-02-09T22:48:15.568Z,50.88
2023-02-09T22:51:20.015Z,50.00
2023-02-09T22:54:25.980Z,51.38
2023-02-09T22:57:29.461Z,51.15
2023-02-09T23:00:35.612Z,51.69
2023-02-09T23:03:39.993Z,51.03
2023-02-09T23:06:44.006Z,50.70
2023-02-09T23:09:49.586Z,50.59
2023-02-09T23:12:53.538Z,50.95
2023-02-09T23:15:57.516Z,51.14
2023-02-09T23:19:03.352Z,50.96
2023-02-09T23:22:07.418Z,50.90
2023-02-09T23:25:13.084Z,50.78
2023-02-09T23:28:18.198Z,50.30
2023-02-09T23:31:23.500Z,49.89
2023-02-09T23:34:27.420Z,49.94
2023-02-09T23:37:37.476Z,50.45
2023-02-09T23:40:43.231Z,50.16
2023-02-09T23:43:47.766Z,49.80
2023-02-09T23:46:51.367Z,50.03
2023-02-09T23:49:55.790Z,50.47
2023-02-09T23:52:59.290Z,49.72
2023-02-09T23:56:05.432Z,49.30
2023-02-09T23:59:12.924Z,49.51
